Colorado Springs, CO (80911)

7:13 AM MDT on March 29, 2017 (GMT -0600)
Eddie's House | | Change Station

Elev 5738 ft 38.74 °N, 104.72 °W | Updated 1 second ago

Overcast
Overcast
38.5 °F
Feels Like 38 °F
N
1.1
Wind Variable Wind from SW
Gusts 2.5 mph

Today
High -- | Low -- °F
--% Chance of Precip.
Yesterday
High -- | Low -- °F
Precip. -- in
Pressure 30.06 in
Visibility 10.0 miles
Clouds Few 1000 ft
Scattered Clouds 2600 ft
Overcast 5500 ft
Windchill 38 °F
Dew Point 31 °F
Humidity 75%
Rainfall 0.00 in
Snow Depth Not available.
6:47 AM 7:19 PM
Waxing Crescent, 3% visible
METAR KCOS 291254Z 34011G20KT 10SM FEW010 SCT026 OVC055 02/M01 A3004 RMK AO2 SLP177 VCSH OMTNS W T00221011
Pressure 30.06 in
Visibility 10.0 miles
Clouds Few 1000 ft
Scattered Clouds 2600 ft
Overcast 5500 ft
Windchill 38 °F
Dew Point 31 °F
Humidity 75%
Rainfall 0.00 in
Snow Depth Not available.
6:47 AM 7:19 PM
Waxing Crescent, 3% visible
METAR KCOS 291254Z 34011G20KT 10SM FEW010 SCT026 OVC055 02/M01 A3004 RMK AO2 SLP177 VCSH OMTNS W T00221011

Get Severe Weather Alerts

Thanks for signing up!

Be on the lookout for a verification email in your inbox.

You'll start receiving the daily forecast at 8 AM.

×

10-Day Weather Forecast

Almanac

Astronomy

Mar. 29, 2017 Rise Set
Actual Time
Civil Twilight
Nautical Twilight
Astronomical Twilight
Moon
Length of Visible Light
Length of Day
Tomorrow will be .
, % of the Moon is Illuminated

Today's Extremes

State Highs State Lows

Community

WunderPhotos

Upload Photos

1,962,540 photos uploaded!

WunderBlog® & News

Nearby

Air Quality

  Air Quality AQ Index Pollutant
Not available.

Snow Depth

Station Depth Elevation

Earthquake Activity

City Distance Mag. Time & Date
Minimum magnitude displayed is 2.5.

Earthquake Activity

City Distance Mag. Time & Date
Minimum magnitude displayed is 2.5.

Coastal Water Temperatures

Place Temperature

Stations

Nearby Weather Stations

Station Location Temp. Windchill Dew Point Humidity Wind Precip. Elev Updated Type
                   

Watches & Warnings

There are currently no watches in effect.